sensor_id;sensor_type;location;lat;lon;timestamp;temperature;humidity
20479;DHT22;10398;52.490;13.434;2022-08-06T00:01:39;20.00;99.90
20479;DHT22;10398;52.490;13.434;2022-08-06T00:04:05;19.90;99.90
20479;DHT22;10398;52.490;13.434;2022-08-06T00:06:31;19.90;99.90
20479;DHT22;10398;52.490;13.434;2022-08-06T00:08:56;19.80;99.90
20479;DHT22;10398;52.490;13.434;2022-08-06T00:11:22;19.80;99.90
20479;DHT22;10398;52.490;13.434;2022-08-06T00:13:47;19.80;99.90
20479;DHT22;10398;52.490;13.434;2022-08-06T00:16:13;19.90;99.90
20479;DHT22;10398;52.490;13.434;2022-08-06T00:18:39;19.80;99.90
20479;DHT22;10398;52.490;13.434;2022-08-06T00:21:04;19.70;99.90
20479;DHT22;10398;52.490;13.434;2022-08-06T00:23:30;19.70;99.90
20479;DHT22;10398;52.490;13.434;2022-08-06T00:25:55;19.60;99.90
20479;DHT22;10398;52.490;13.434;2022-08-06T00:28:22;19.70;99.90
20479;DHT22;10398;52.490;13.434;2022-08-06T00:30:49;19.70;99.90
20479;DHT22;10398;52.490;13.434;2022-08-06T00:33:14;19.60;99.90
20479;DHT22;10398;52.490;13.434;2022-08-06T00:35:40;19.60;99.90
20479;DHT22;10398;52.490;13.434;2022-08-06T00:38:06;19.50;99.90
20479;DHT22;10398;52.490;13.434;2022-08-06T00:40:32;19.50;99.90
20479;DHT22;10398;52.490;13.434;2022-08-06T00:43:00;19.50;99.90
20479;DHT22;10398;52.490;13.434;2022-08-06T00:45:26;19.50;99.90
20479;DHT22;10398;52.490;13.434;2022-08-06T00:47:52;19.50;99.90
20479;DHT22;10398;52.490;13.434;2022-08-06T00:50:17;19.50;99.90
20479;DHT22;10398;52.490;13.434;2022-08-06T00:52:43;19.50;99.90
20479;DHT22;10398;52.490;13.434;2022-08-06T00:55:11;19.50;99.90
20479;DHT22;10398;52.490;13.434;2022-08-06T00:57:37;19.50;99.90
20479;DHT22;10398;52.490;13.434;2022-08-06T01:00:04;19.40;99.90
20479;DHT22;10398;52.490;13.434;2022-08-06T01:02:31;19.30;99.90
20479;DHT22;10398;52.490;13.434;2022-08-06T01:04:56;19.20;99.90
20479;DHT22;10398;52.490;13.434;2022-08-06T01:07:22;19.20;99.90
20479;DHT22;10398;52.490;13.434;2022-08-06T01:09:48;19.20;99.90
20479;DHT22;10398;52.490;13.434;2022-08-06T01:12:15;19.20;99.90
20479;DHT22;10398;52.490;13.434;2022-08-06T01:14:40;19.10;99.90
20479;DHT22;10398;52.490;13.434;2022-08-06T01:17:28;19.10;99.90
20479;DHT22;10398;52.490;13.434;2022-08-06T01:25:46;19.00;99.90
20479;DHT22;10398;52.490;13.434;2022-08-06T01:28:24;19.00;99.90
20479;DHT22;10398;52.490;13.434;2022-08-06T01:30:57;19.00;99.90
20479;DHT22;10398;52.490;13.434;2022-08-06T01:33:32;19.00;99.90
20479;DHT22;10398;52.490;13.434;2022-08-06T01:36:05;19.00;99.90
20479;DHT22;10398;52.490;13.434;2022-08-06T01:38:39;19.00;99.90
20479;DHT22;10398;52.490;13.434;2022-08-06T01:41:10;18.90;99.90
20479;DHT22;10398;52.490;13.434;2022-08-06T01:43:37;18.90;99.90
20479;DHT22;10398;52.490;13.434;2022-08-06T01:46:05;18.80;99.90
20479;DHT22;10398;52.490;13.434;2022-08-06T01:48:32;18.80;99.90
20479;DHT22;10398;52.490;13.434;2022-08-06T01:51:01;18.70;99.90
20479;DHT22;10398;52.490;13.434;2022-08-06T01:53:36;18.70;99.90
20479;DHT22;10398;52.490;13.434;2022-08-06T01:56:04;18.70;99.90
20479;DHT22;10398;52.490;13.434;2022-08-06T01:58:36;18.70;99.90
20479;DHT22;10398;52.490;13.434;2022-08-06T02:01:06;18.70;99.90
20479;DHT22;10398;52.490;13.434;2022-08-06T02:03:39;18.60;99.90
20479;DHT22;10398;52.490;13.434;2022-08-06T02:06:09;18.60;99.90
20479;DHT22;10398;52.490;13.434;2022-08-06T02:08:37;18.60;99.90
20479;DHT22;10398;52.490;13.434;2022-08-06T02:11:07;18.60;99.90
20479;DHT22;10398;52.490;13.434;2022-08-06T02:13:35;18.50;99.90
20479;DHT22;10398;52.490;13.434;2022-08-06T02:16:03;18.50;99.90
20479;DHT22;10398;52.490;13.434;2022-08-06T02:18:31;18.50;99.90
20479;DHT22;10398;52.490;13.434;2022-08-06T02:21:00;18.50;99.90
20479;DHT22;10398;52.490;13.434;2022-08-06T02:23:28;18.50;99.90
20479;DHT22;10398;52.490;13.434;2022-08-06T02:25:55;18.40;99.90
20479;DHT22;10398;52.490;13.434;2022-08-06T02:28:23;18.40;99.90
20479;DHT22;10398;52.490;13.434;2022-08-06T02:30:51;18.40;99.90
20479;DHT22;10398;52.490;13.434;2022-08-06T02:33:17;18.40;99.90
20479;DHT22;10398;52.490;13.434;2022-08-06T02:38:28;18.40;99.90
20479;DHT22;10398;52.490;13.434;2022-08-06T02:41:02;18.40;99.90
20479;DHT22;10398;52.490;13.434;2022-08-06T02:43:37;18.30;99.90
20479;DHT22;10398;52.490;13.434;2022-08-06T02:46:10;18.30;99.90
20479;DHT22;10398;52.490;13.434;2022-08-06T02:48:45;18.30;99.90
20479;DHT22;10398;52.490;13.434;2022-08-06T02:51:17;18.20;99.90
20479;DHT22;10398;52.490;13.434;2022-08-06T02:57:04;18.10;99.90
20479;DHT22;10398;52.490;13.434;2022-08-06T02:59:42;18.10;99.90
20479;DHT22;10398;52.490;13.434;2022-08-06T03:02:10;18.20;99.90
20479;DHT22;10398;52.490;13.434;2022-08-06T03:04:41;18.20;99.90
20479;DHT22;10398;52.490;13.434;2022-08-06T03:07:09;18.20;99.90
20479;DHT22;10398;52.490;13.434;2022-08-06T03:09:37;18.20;99.90
20479;DHT22;10398;52.490;13.434;2022-08-06T03:12:04;18.10;99.90
20479;DHT22;10398;52.490;13.434;2022-08-06T03:14:32;18.00;99.90
20479;DHT22;10398;52.490;13.434;2022-08-06T03:16:58;18.00;99.90
20479;DHT22;10398;52.490;13.434;2022-08-06T03:19:26;18.00;99.90
20479;DHT22;10398;52.490;13.434;2022-08-06T03:21:53;18.00;99.90
20479;DHT22;10398;52.490;13.434;2022-08-06T03:24:21;17.90;99.90
20479;DHT22;10398;52.490;13.434;2022-08-06T03:26:49;17.90;99.90
20479;DHT22;10398;52.490;13.434;2022-08-06T03:29:16;17.90;99.90
20479;DHT22;10398;52.490;13.434;2022-08-06T03:31:42;17.90;99.90
20479;DHT22;10398;52.490;13.434;2022-08-06T03:34:08;17.90;99.90
20479;DHT22;10398;52.490;13.434;2022-08-06T03:36:35;17.90;99.90
20479;DHT22;10398;52.490;13.434;2022-08-06T03:39:04;17.90;99.90
20479;DHT22;10398;52.490;13.434;2022-08-06T03:41:34;17.80;99.90
20479;DHT22;10398;52.490;13.434;2022-08-06T03:43:59;17.80;99.90
20479;DHT22;10398;52.490;13.434;2022-08-06T03:46:36;17.70;99.90
20479;DHT22;10398;52.490;13.434;2022-08-06T03:49:04;17.70;99.90
20479;DHT22;10398;52.490;13.434;2022-08-06T03:51:31;17.80;99.90
20479;DHT22;10398;52.490;13.434;2022-08-06T03:53:59;17.70;99.90
20479;DHT22;10398;52.490;13.434;2022-08-06T03:56:27;17.70;99.90
20479;DHT22;10398;52.490;13.434;2022-08-06T03:58:56;17.60;99.90
20479;DHT22;10398;52.490;13.434;2022-08-06T04:01:26;17.60;99.90
20479;DHT22;10398;52.490;13.434;2022-08-06T04:03:53;17.60;99.90
20479;DHT22;10398;52.490;13.434;2022-08-06T04:06:20;17.50;99.90
20479;DHT22;10398;52.490;13.434;2022-08-06T04:08:48;17.50;99.90
20479;DHT22;10398;52.490;13.434;2022-08-06T04:11:15;17.50;99.90
20479;DHT22;10398;52.490;13.434;2022-08-06T04:13:42;17.50;99.90
20479;DHT22;10398;52.490;13.434;2022-08-06T04:16:11;17.50;99.90
20479;DHT22;10398;52.490;13.434;2022-08-06T04:18:39;17.50;99.90
20479;DHT22;10398;52.490;13.434;2022-08-06T04:21:09;17.40;99.90
20479;DHT22;10398;52.490;13.434;2022-08-06T04:23:35;17.50;99.90
20479;DHT22;10398;52.490;13.434;2022-08-06T04:26:05;17.60;99.90
20479;DHT22;10398;52.490;13.434;2022-08-06T04:28:34;17.60;99.90
20479;DHT22;10398;52.490;13.434;2022-08-06T04:31:01;17.60;99.90
20479;DHT22;10398;52.490;13.434;2022-08-06T04:33:30;17.70;99.90
20479;DHT22;10398;52.490;13.434;2022-08-06T04:35:58;17.70;99.90
20479;DHT22;10398;52.490;13.434;2022-08-06T04:38:24;17.70;99.90
20479;DHT22;10398;52.490;13.434;2022-08-06T04:40:50;17.70;99.90
20479;DHT22;10398;52.490;13.434;2022-08-06T04:43:16;17.70;99.90
20479;DHT22;10398;52.490;13.434;2022-08-06T04:45:43;17.70;99.90
20479;DHT22;10398;52.490;13.434;2022-08-06T04:48:11;17.70;99.90
20479;DHT22;10398;52.490;13.434;2022-08-06T04:50:37;17.70;99.90
20479;DHT22;10398;52.490;13.434;2022-08-06T04:53:07;17.60;99.90
20479;DHT22;10398;52.490;13.434;2022-08-06T04:55:34;17.70;99.90
20479;DHT22;10398;52.490;13.434;2022-08-06T04:58:06;17.70;99.90
20479;DHT22;10398;52.490;13.434;2022-08-06T05:00:37;17.60;99.90
20479;DHT22;10398;52.490;13.434;2022-08-06T05:03:03;17.60;99.90
20479;DHT22;10398;52.490;13.434;2022-08-06T05:05:34;17.60;99.90
20479;DHT22;10398;52.490;13.434;2022-08-06T05:08:01;17.50;99.90
20479;DHT22;10398;52.490;13.434;2022-08-06T05:10:39;17.50;99.90
20479;DHT22;10398;52.490;13.434;2022-08-06T05:13:07;17.50;99.90
20479;DHT22;10398;52.490;13.434;2022-08-06T05:15:40;17.50;99.90
20479;DHT22;10398;52.490;13.434;2022-08-06T05:18:11;17.60;99.90
20479;DHT22;10398;52.490;13.434;2022-08-06T05:20:39;17.50;99.90
20479;DHT22;10398;52.490;13.434;2022-08-06T05:23:45;17.40;99.90
20479;DHT22;10398;52.490;13.434;2022-08-06T05:26:12;17.40;99.90
20479;DHT22;10398;52.490;13.434;2022-08-06T05:28:42;17.40;99.90
20479;DHT22;10398;52.490;13.434;2022-08-06T05:31:08;17.30;99.90
20479;DHT22;10398;52.490;13.434;2022-08-06T05:33:36;17.30;99.90
20479;DHT22;10398;52.490;13.434;2022-08-06T05:36:03;17.30;99.90
20479;DHT22;10398;52.490;13.434;2022-08-06T05:38:30;17.40;99.90
20479;DHT22;10398;52.490;13.434;2022-08-06T05:40:56;17.30;99.90
20479;DHT22;10398;52.490;13.434;2022-08-06T05:43:23;17.30;99.90
20479;DHT22;10398;52.490;13.434;2022-08-06T05:45:51;17.20;99.90
20479;DHT22;10398;52.490;13.434;2022-08-06T05:48:19;17.10;99.90
20479;DHT22;10398;52.490;13.434;2022-08-06T05:50:52;17.10;99.90
20479;DHT22;10398;52.490;13.434;2022-08-06T05:53:25;17.20;99.90
20479;DHT22;10398;52.490;13.434;2022-08-06T05:55:58;17.20;99.90
20479;DHT22;10398;52.490;13.434;2022-08-06T05:58:35;17.20;99.90
20479;DHT22;10398;52.490;13.434;2022-08-06T06:01:03;17.20;99.90
20479;DHT22;10398;52.490;13.434;2022-08-06T06:03:30;17.10;99.90
20479;DHT22;10398;52.490;13.434;2022-08-06T06:05:58;17.00;99.90
20479;DHT22;10398;52.490;13.434;2022-08-06T06:08:24;16.90;99.90
20479;DHT22;10398;52.490;13.434;2022-08-06T06:10:51;17.00;99.90
20479;DHT22;10398;52.490;13.434;2022-08-06T06:13:19;17.00;99.90
20479;DHT22;10398;52.490;13.434;2022-08-06T06:15:55;17.00;99.90
20479;DHT22;10398;52.490;13.434;2022-08-06T06:22:10;17.10;99.90
20479;DHT22;10398;52.490;13.434;2022-08-06T06:24:41;17.10;99.90
20479;DHT22;10398;52.490;13.434;2022-08-06T06:27:16;17.20;99.90
20479;DHT22;10398;52.490;13.434;2022-08-06T06:29:51;17.20;99.90
20479;DHT22;10398;52.490;13.434;2022-08-06T06:32:46;17.20;99.90
20479;DHT22;10398;52.490;13.434;2022-08-06T06:35:53;17.30;99.90
20479;DHT22;10398;52.490;13.434;2022-08-06T06:38:47;17.40;99.90
20479;DHT22;10398;52.490;13.434;2022-08-06T06:41:21;17.30;99.90
20479;DHT22;10398;52.490;13.434;2022-08-06T06:43:56;17.40;99.90
20479;DHT22;10398;52.490;13.434;2022-08-06T06:46:35;17.60;99.90
20479;DHT22;10398;52.490;13.434;2022-08-06T06:51:41;17.70;99.90
20479;DHT22;10398;52.490;13.434;2022-08-06T06:54:16;17.70;99.90
20479;DHT22;10398;52.490;13.434;2022-08-06T06:56:46;17.80;99.90
20479;DHT22;10398;52.490;13.434;2022-08-06T06:59:18;17.80;99.90
20479;DHT22;10398;52.490;13.434;2022-08-06T07:01:47;17.90;99.90
20479;DHT22;10398;52.490;13.434;2022-08-06T07:04:15;18.10;99.90
20479;DHT22;10398;52.490;13.434;2022-08-06T07:06:41;18.10;99.90
20479;DHT22;10398;52.490;13.434;2022-08-06T07:09:18;18.20;99.90
20479;DHT22;10398;52.490;13.434;2022-08-06T07:11:46;18.10;99.90
20479;DHT22;10398;52.490;13.434;2022-08-06T07:14:13;18.30;99.90
20479;DHT22;10398;52.490;13.434;2022-08-06T07:16:40;18.30;99.90
20479;DHT22;10398;52.490;13.434;2022-08-06T07:19:08;18.20;99.90
20479;DHT22;10398;52.490;13.434;2022-08-06T07:21:36;18.00;99.90
20479;DHT22;10398;52.490;13.434;2022-08-06T07:24:02;18.10;99.90
20479;DHT22;10398;52.490;13.434;2022-08-06T07:26:29;18.10;99.90
20479;DHT22;10398;52.490;13.434;2022-08-06T07:28:56;18.20;99.90
20479;DHT22;10398;52.490;13.434;2022-08-06T07:31:23;18.40;99.90
20479;DHT22;10398;52.490;13.434;2022-08-06T07:33:51;18.40;99.90
20479;DHT22;10398;52.490;13.434;2022-08-06T07:36:19;18.50;99.90
20479;DHT22;10398;52.490;13.434;2022-08-06T07:38:46;18.60;99.90
20479;DHT22;10398;52.490;13.434;2022-08-06T07:41:13;18.70;99.90
20479;DHT22;10398;52.490;13.434;2022-08-06T07:43:41;18.80;99.90
20479;DHT22;10398;52.490;13.434;2022-08-06T07:46:10;19.00;99.90
20479;DHT22;10398;52.490;13.434;2022-08-06T07:48:49;19.10;99.90
20479;DHT22;10398;52.490;13.434;2022-08-06T07:51:18;19.20;99.90
20479;DHT22;10398;52.490;13.434;2022-08-06T07:53:48;19.40;99.90
20479;DHT22;10398;52.490;13.434;2022-08-06T07:56:14;19.50;99.90
20479;DHT22;10398;52.490;13.434;2022-08-06T07:58:42;19.70;99.90
20479;DHT22;10398;52.490;13.434;2022-08-06T08:01:08;19.80;99.90
20479;DHT22;10398;52.490;13.434;2022-08-06T08:03:34;19.90;99.90
20479;DHT22;10398;52.490;13.434;2022-08-06T08:06:19;19.80;99.90
20479;DHT22;10398;52.490;13.434;2022-08-06T08:09:04;20.00;99.90
20479;DHT22;10398;52.490;13.434;2022-08-06T08:11:31;20.00;99.90
20479;DHT22;10398;52.490;13.434;2022-08-06T08:13:58;20.10;99.90
20479;DHT22;10398;52.490;13.434;2022-08-06T08:16:26;20.20;99.90
20479;DHT22;10398;52.490;13.434;2022-08-06T08:18:52;20.10;99.90
20479;DHT22;10398;52.490;13.434;2022-08-06T08:21:19;20.20;99.90
20479;DHT22;10398;52.490;13.434;2022-08-06T08:23:46;20.30;99.90
20479;DHT22;10398;52.490;13.434;2022-08-06T08:26:12;20.40;99.90
20479;DHT22;10398;52.490;13.434;2022-08-06T08:28:38;20.40;99.90
20479;DHT22;10398;52.490;13.434;2022-08-06T08:31:04;20.50;99.90
20479;DHT22;10398;52.490;13.434;2022-08-06T08:33:32;20.70;99.90
20479;DHT22;10398;52.490;13.434;2022-08-06T08:35:58;20.90;99.90
20479;DHT22;10398;52.490;13.434;2022-08-06T08:38:25;20.90;99.90
20479;DHT22;10398;52.490;13.434;2022-08-06T08:40:51;21.00;99.90
20479;DHT22;10398;52.490;13.434;2022-08-06T08:43:21;20.80;99.00
20479;DHT22;10398;52.490;13.434;2022-08-06T08:45:48;20.70;99.90
20479;DHT22;10398;52.490;13.434;2022-08-06T08:48:25;20.60;99.60
20479;DHT22;10398;52.490;13.434;2022-08-06T08:50:56;20.50;99.90
20479;DHT22;10398;52.490;13.434;2022-08-06T08:53:41;20.70;99.90
20479;DHT22;10398;52.490;13.434;2022-08-06T08:56:08;21.00;99.90
20479;DHT22;10398;52.490;13.434;2022-08-06T08:58:34;21.10;99.50
20479;DHT22;10398;52.490;13.434;2022-08-06T09:01:04;21.30;99.40
20479;DHT22;10398;52.490;13.434;2022-08-06T09:03:32;21.50;99.30
20479;DHT22;10398;52.490;13.434;2022-08-06T09:05:58;21.50;98.30
20479;DHT22;10398;52.490;13.434;2022-08-06T09:08:24;21.70;98.00
20479;DHT22;10398;52.490;13.434;2022-08-06T09:10:50;21.90;97.00
20479;DHT22;10398;52.490;13.434;2022-08-06T09:13:16;22.00;97.40
20479;DHT22;10398;52.490;13.434;2022-08-06T09:15:42;21.80;96.50
20479;DHT22;10398;52.490;13.434;2022-08-06T09:18:07;21.70;96.60
20479;DHT22;10398;52.490;13.434;2022-08-06T09:20:35;21.40;96.40
20479;DHT22;10398;52.490;13.434;2022-08-06T09:23:01;21.20;95.60
20479;DHT22;10398;52.490;13.434;2022-08-06T09:25:40;21.10;96.30
20479;DHT22;10398;52.490;13.434;2022-08-06T09:31:02;21.30;95.70
20479;DHT22;10398;52.490;13.434;2022-08-06T09:33:30;21.40;95.00
20479;DHT22;10398;52.490;13.434;2022-08-06T09:36:01;21.40;95.00
20479;DHT22;10398;52.490;13.434;2022-08-06T09:38:28;21.60;95.40
20479;DHT22;10398;52.490;13.434;2022-08-06T09:41:08;21.70;95.20
20479;DHT22;10398;52.490;13.434;2022-08-06T09:43:36;22.00;94.70
20479;DHT22;10398;52.490;13.434;2022-08-06T09:46:02;22.10;95.00
20479;DHT22;10398;52.490;13.434;2022-08-06T09:48:27;22.20;95.50
20479;DHT22;10398;52.490;13.434;2022-08-06T09:50:53;22.30;95.40
20479;DHT22;10398;52.490;13.434;2022-08-06T09:53:19;22.40;95.90
20479;DHT22;10398;52.490;13.434;2022-08-06T09:55:47;22.50;92.50
20479;DHT22;10398;52.490;13.434;2022-08-06T09:58:14;22.40;93.40
20479;DHT22;10398;52.490;13.434;2022-08-06T10:00:50;22.50;93.10
20479;DHT22;10398;52.490;13.434;2022-08-06T10:03:16;22.20;92.10
20479;DHT22;10398;52.490;13.434;2022-08-06T10:05:42;22.20;93.50
20479;DHT22;10398;52.490;13.434;2022-08-06T10:08:17;22.00;93.20
20479;DHT22;10398;52.490;13.434;2022-08-06T10:10:49;22.00;94.70
20479;DHT22;10398;52.490;13.434;2022-08-06T10:15:42;22.40;94.10
20479;DHT22;10398;52.490;13.434;2022-08-06T10:18:10;22.70;94.10
20479;DHT22;10398;52.490;13.434;2022-08-06T10:20:36;22.90;92.50
20479;DHT22;10398;52.490;13.434;2022-08-06T10:23:01;23.00;92.10
20479;DHT22;10398;52.490;13.434;2022-08-06T10:25:27;23.10;92.30
20479;DHT22;10398;52.490;13.434;2022-08-06T10:27:55;23.10;92.10
20479;DHT22;10398;52.490;13.434;2022-08-06T10:30:21;22.80;91.10
20479;DHT22;10398;52.490;13.434;2022-08-06T10:32:55;22.70;92.20
20479;DHT22;10398;52.490;13.434;2022-08-06T10:35:24;22.70;91.60
20479;DHT22;10398;52.490;13.434;2022-08-06T10:37:52;22.80;92.00
20479;DHT22;10398;52.490;13.434;2022-08-06T10:40:22;22.90;92.10
20479;DHT22;10398;52.490;13.434;2022-08-06T10:42:49;22.90;91.10
20479;DHT22;10398;52.490;13.434;2022-08-06T10:45:17;22.90;91.40
20479;DHT22;10398;52.490;13.434;2022-08-06T10:47:45;23.00;90.10
20479;DHT22;10398;52.490;13.434;2022-08-06T10:50:14;23.10;91.00
20479;DHT22;10398;52.490;13.434;2022-08-06T10:52:40;23.20;90.50
20479;DHT22;10398;52.490;13.434;2022-08-06T10:55:08;23.40;90.20
20479;DHT22;10398;52.490;13.434;2022-08-06T10:57:34;23.50;88.60
20479;DHT22;10398;52.490;13.434;2022-08-06T11:00:01;23.60;87.30
20479;DHT22;10398;52.490;13.434;2022-08-06T11:03:06;23.60;88.00
20479;DHT22;10398;52.490;13.434;2022-08-06T11:05:37;23.60;89.00
20479;DHT22;10398;52.490;13.434;2022-08-06T11:10:56;23.60;89.80
20479;DHT22;10398;52.490;13.434;2022-08-06T11:15:50;23.60;90.30
20479;DHT22;10398;52.490;13.434;2022-08-06T11:18:16;23.50;88.70
20479;DHT22;10398;52.490;13.434;2022-08-06T11:20:46;23.30;90.30
20479;DHT22;10398;52.490;13.434;2022-08-06T11:25:46;23.60;90.70
20479;DHT22;10398;52.490;13.434;2022-08-06T11:28:17;23.80;86.90
20479;DHT22;10398;52.490;13.434;2022-08-06T11:30:49;23.90;86.00
20479;DHT22;10398;52.490;13.434;2022-08-06T11:33:18;24.10;87.10
20479;DHT22;10398;52.490;13.434;2022-08-06T11:35:49;24.20;88.30
20479;DHT22;10398;52.490;13.434;2022-08-06T11:41:17;24.30;87.50
20479;DHT22;10398;52.490;13.434;2022-08-06T11:46:25;24.40;81.40
20479;DHT22;10398;52.490;13.434;2022-08-06T11:54:16;24.00;83.70
20479;DHT22;10398;52.490;13.434;2022-08-06T12:00:18;24.00;86.20
20479;DHT22;10398;52.490;13.434;2022-08-06T12:07:41;23.80;84.20
20479;DHT22;10398;52.490;13.434;2022-08-06T12:10:11;23.80;84.80
20479;DHT22;10398;52.490;13.434;2022-08-06T12:12:45;23.80;85.80
20479;DHT22;10398;52.490;13.434;2022-08-06T12:20:38;23.60;83.50
20479;DHT22;10398;52.490;13.434;2022-08-06T12:23:10;23.60;83.90
20479;DHT22;10398;52.490;13.434;2022-08-06T12:25:42;23.80;82.60
20479;DHT22;10398;52.490;13.434;2022-08-06T12:28:09;23.80;81.00
20479;DHT22;10398;52.490;13.434;2022-08-06T12:30:50;23.90;80.10
20479;DHT22;10398;52.490;13.434;2022-08-06T12:33:17;24.00;80.80
20479;DHT22;10398;52.490;13.434;2022-08-06T12:35:55;24.00;78.50
20479;DHT22;10398;52.490;13.434;2022-08-06T12:38:23;24.10;79.60
20479;DHT22;10398;52.490;13.434;2022-08-06T12:41:02;24.10;77.30
20479;DHT22;10398;52.490;13.434;2022-08-06T12:43:31;24.30;77.80
20479;DHT22;10398;52.490;13.434;2022-08-06T12:48:23;24.80;76.50
20479;DHT22;10398;52.490;13.434;2022-08-06T12:50:55;24.80;72.50
20479;DHT22;10398;52.490;13.434;2022-08-06T12:53:25;25.00;72.00
20479;DHT22;10398;52.490;13.434;2022-08-06T12:55:52;25.10;73.40
20479;DHT22;10398;52.490;13.434;2022-08-06T12:58:20;25.10;70.60
20479;DHT22;10398;52.490;13.434;2022-08-06T13:00:50;25.20;71.50
20479;DHT22;10398;52.490;13.434;2022-08-06T13:03:18;25.20;71.10
20479;DHT22;10398;52.490;13.434;2022-08-06T13:05:44;25.20;69.90
20479;DHT22;10398;52.490;13.434;2022-08-06T13:08:11;25.20;69.80
20479;DHT22;10398;52.490;13.434;2022-08-06T13:10:37;25.20;71.20
20479;DHT22;10398;52.490;13.434;2022-08-06T13:13:04;25.30;72.30
20479;DHT22;10398;52.490;13.434;2022-08-06T13:15:31;25.50;71.80
20479;DHT22;10398;52.490;13.434;2022-08-06T13:18:14;25.60;70.60
20479;DHT22;10398;52.490;13.434;2022-08-06T13:20:42;25.70;68.00
20479;DHT22;10398;52.490;13.434;2022-08-06T13:23:09;25.80;69.30
20479;DHT22;10398;52.490;13.434;2022-08-06T13:26:16;25.90;70.50
20479;DHT22;10398;52.490;13.434;2022-08-06T13:31:37;25.80;69.10
20479;DHT22;10398;52.490;13.434;2022-08-06T13:34:05;25.60;74.00
20479;DHT22;10398;52.490;13.434;2022-08-06T13:36:32;25.50;74.10
20479;DHT22;10398;52.490;13.434;2022-08-06T13:41:59;25.60;71.00
20479;DHT22;10398;52.490;13.434;2022-08-06T13:44:33;25.70;70.70
20479;DHT22;10398;52.490;13.434;2022-08-06T13:46:59;25.90;69.20
20479;DHT22;10398;52.490;13.434;2022-08-06T13:49:25;25.90;68.80
20479;DHT22;10398;52.490;13.434;2022-08-06T13:51:51;26.00;65.40
20479;DHT22;10398;52.490;13.434;2022-08-06T13:54:17;26.10;66.40
20479;DHT22;10398;52.490;13.434;2022-08-06T13:56:43;25.90;64.90
20479;DHT22;10398;52.490;13.434;2022-08-06T13:59:09;25.90;65.20
20479;DHT22;10398;52.490;13.434;2022-08-06T14:01:35;25.90;69.90
20479;DHT22;10398;52.490;13.434;2022-08-06T14:04:00;25.90;70.00
20479;DHT22;10398;52.490;13.434;2022-08-06T14:06:26;26.00;66.40
20479;DHT22;10398;52.490;13.434;2022-08-06T14:08:52;26.00;67.80
20479;DHT22;10398;52.490;13.434;2022-08-06T14:11:17;26.00;67.80
20479;DHT22;10398;52.490;13.434;2022-08-06T14:13:49;26.20;68.00
20479;DHT22;10398;52.490;13.434;2022-08-06T14:16:14;26.20;69.80
20479;DHT22;10398;52.490;13.434;2022-08-06T14:18:40;26.30;68.80
20479;DHT22;10398;52.490;13.434;2022-08-06T14:21:06;26.30;71.20
20479;DHT22;10398;52.490;13.434;2022-08-06T14:23:31;26.40;69.10
20479;DHT22;10398;52.490;13.434;2022-08-06T14:25:57;26.30;67.40
20479;DHT22;10398;52.490;13.434;2022-08-06T14:28:24;26.20;68.30
20479;DHT22;10398;52.490;13.434;2022-08-06T14:30:49;26.00;68.40
20479;DHT22;10398;52.490;13.434;2022-08-06T14:33:15;26.00;65.50
20479;DHT22;10398;52.490;13.434;2022-08-06T14:35:41;25.90;65.50
20479;DHT22;10398;52.490;13.434;2022-08-06T14:38:06;25.80;65.30
20479;DHT22;10398;52.490;13.434;2022-08-06T14:40:32;25.70;65.70
20479;DHT22;10398;52.490;13.434;2022-08-06T14:43:16;25.70;66.40
20479;DHT22;10398;52.490;13.434;2022-08-06T14:46:01;25.70;66.50
20479;DHT22;10398;52.490;13.434;2022-08-06T14:48:26;25.60;66.00
20479;DHT22;10398;52.490;13.434;2022-08-06T14:50:52;25.50;64.70
20479;DHT22;10398;52.490;13.434;2022-08-06T14:53:18;25.40;64.60
20479;DHT22;10398;52.490;13.434;2022-08-06T14:55:43;25.30;66.50
20479;DHT22;10398;52.490;13.434;2022-08-06T14:58:10;25.40;67.60
20479;DHT22;10398;52.490;13.434;2022-08-06T15:00:37;25.50;65.30
20479;DHT22;10398;52.490;13.434;2022-08-06T15:03:03;25.60;66.40
20479;DHT22;10398;52.490;13.434;2022-08-06T15:05:28;25.70;66.40
20479;DHT22;10398;52.490;13.434;2022-08-06T15:07:54;25.80;66.20
20479;DHT22;10398;52.490;13.434;2022-08-06T15:10:20;25.90;66.50
20479;DHT22;10398;52.490;13.434;2022-08-06T15:12:45;26.00;65.70
20479;DHT22;10398;52.490;13.434;2022-08-06T15:15:11;26.00;64.40
20479;DHT22;10398;52.490;13.434;2022-08-06T15:17:37;26.00;63.60
20479;DHT22;10398;52.490;13.434;2022-08-06T15:20:04;26.10;63.60
20479;DHT22;10398;52.490;13.434;2022-08-06T15:22:29;26.10;64.10
20479;DHT22;10398;52.490;13.434;2022-08-06T15:24:55;26.10;64.70
20479;DHT22;10398;52.490;13.434;2022-08-06T15:27:20;26.20;64.70
20479;DHT22;10398;52.490;13.434;2022-08-06T15:29:47;26.30;62.30
20479;DHT22;10398;52.490;13.434;2022-08-06T15:32:12;26.30;62.50
20479;DHT22;10398;52.490;13.434;2022-08-06T15:34:38;26.30;63.20
20479;DHT22;10398;52.490;13.434;2022-08-06T15:37:04;26.40;62.40
20479;DHT22;10398;52.490;13.434;2022-08-06T15:39:32;26.40;61.30
20479;DHT22;10398;52.490;13.434;2022-08-06T15:41:57;26.30;60.80
20479;DHT22;10398;52.490;13.434;2022-08-06T15:44:23;26.10;59.70
20479;DHT22;10398;52.490;13.434;2022-08-06T15:46:49;26.00;58.60
20479;DHT22;10398;52.490;13.434;2022-08-06T15:49:14;25.90;59.10
20479;DHT22;10398;52.490;13.434;2022-08-06T15:51:40;25.90;61.50
20479;DHT22;10398;52.490;13.434;2022-08-06T15:54:06;26.00;60.20
20479;DHT22;10398;52.490;13.434;2022-08-06T15:56:31;25.70;60.80
20479;DHT22;10398;52.490;13.434;2022-08-06T15:58:58;25.70;62.50
20479;DHT22;10398;52.490;13.434;2022-08-06T16:01:24;25.80;62.30
20479;DHT22;10398;52.490;13.434;2022-08-06T16:03:49;25.80;61.30
20479;DHT22;10398;52.490;13.434;2022-08-06T16:06:15;25.80;59.30
20479;DHT22;10398;52.490;13.434;2022-08-06T16:08:41;25.80;61.80
20479;DHT22;10398;52.490;13.434;2022-08-06T16:11:07;25.80;60.70
20479;DHT22;10398;52.490;13.434;2022-08-06T16:13:33;25.80;61.10
20479;DHT22;10398;52.490;13.434;2022-08-06T16:15:58;25.70;60.20
20479;DHT22;10398;52.490;13.434;2022-08-06T16:18:24;25.80;64.50
20479;DHT22;10398;52.490;13.434;2022-08-06T16:20:50;25.80;62.10
20479;DHT22;10398;52.490;13.434;2022-08-06T16:23:17;25.80;65.00
20479;DHT22;10398;52.490;13.434;2022-08-06T16:25:43;25.90;63.40
20479;DHT22;10398;52.490;13.434;2022-08-06T16:28:09;25.90;62.60
20479;DHT22;10398;52.490;13.434;2022-08-06T16:30:37;25.70;58.60